Anderson Springs, California
Current Conditions -  °F | °C
As of 9:02 PM on Friday 28 Nov 2014 (Local Time) from KSTS Reporting Station
Haze Haze  
Wind Chill: 55°   Ceiling: 500
Heat Index: 55°   Visibility: 3mi
Dew Point: 55°   Wind: 3mph
Humidity: 100%   Direction: 140°SE
Pressure: 29.84"   Gusts: NA
Location:  38.7763°N, 122.598°W
Report Text: KSTS 290502Z AUTO 14003KT 3SM BR OVC005 13/13 A2984 RMK AO2 RAE00 CIG 002V009 P0000
Loading
Personal Weather Stations






























Interactive Weather Map New forecast layout! Learn more

10-Day Weather Forecast

Advertisements
Track Severe Weather on mobile